MTN001 KSGF-KIAH
Flight info
| Callsign | MTN001 |
|---|---|
| Flight time | 1h 43m |
| Altitude | 34000 |
| Route | EOS TUL J87 CVE GUSHR3 |
| Aircraft | CRJ7/M-SDFGIRWY/S |
Departure
| Time | 2026-04-22 13:30 |
|---|---|
| Airport | Springfield Branson National Airport (KSGF) |
Arrival
| Time | 2026-04-22 15:13 |
|---|---|
| Airport | George Bush Intercontinental Airport (KIAH) |
| Time | Latitude | Longitude | Altitude | Speed | Heading |
|---|---|---|---|---|---|
| 2026-04-22 13:10 | 37.24029 | -93.39530 | 1265 ft | 0 kts | 284° |
| 2026-04-22 13:11 | 37.24029 | -93.39531 | 1265 ft | 0 kts | 284° |
| 2026-04-22 13:20 | 37.24026 | -93.39518 | 1265 ft | 4 kts | 295° |
| 2026-04-22 13:20 | 37.24008 | -93.39497 | 1269 ft | 4 kts | 339° |
| 2026-04-22 13:20 | 37.23983 | -93.39488 | 1267 ft | 4 kts | 334° |
| 2026-04-22 13:20 | 37.23992 | -93.39474 | 1265 ft | 4 kts | 211° |
| 2026-04-22 13:21 | 37.24016 | -93.39459 | 1265 ft | 4 kts | 204° |
| 2026-04-22 13:21 | 37.24030 | -93.39452 | 1271 ft | 4 kts | 204° |
| 2026-04-22 13:21 | 37.24040 | -93.39446 | 1268 ft | 2 kts | 24° |
| 2026-04-22 13:21 | 37.24038 | -93.39447 | 1267 ft | 0 kts | 24° |
| 2026-04-22 13:24 | 37.24041 | -93.39445 | 1265 ft | 4 kts | 24° |
| 2026-04-22 13:24 | 37.24105 | -93.39411 | 1266 ft | 13 kts | 22° |
| 2026-04-22 13:25 | 37.24184 | -93.39345 | 1267 ft | 15 kts | 73° |
| 2026-04-22 13:25 | 37.24164 | -93.39234 | 1271 ft | 11 kts | 110° |
| 2026-04-22 13:25 | 37.24139 | -93.39156 | 1272 ft | 10 kts | 112° |
| 2026-04-22 13:25 | 37.24104 | -93.39044 | 1274 ft | 17 kts | 111° |
| 2026-04-22 13:26 | 37.24077 | -93.38921 | 1277 ft | 12 kts | 78° |
| 2026-04-22 13:26 | 37.24131 | -93.38851 | 1277 ft | 15 kts | 32° |
| 2026-04-22 13:26 | 37.24225 | -93.38777 | 1279 ft | 16 kts | 32° |
| 2026-04-22 13:26 | 37.24328 | -93.38699 | 1274 ft | 19 kts | 27° |
| 2026-04-22 13:27 | 37.24454 | -93.38628 | 1272 ft | 20 kts | 21° |
| 2026-04-22 13:27 | 37.24586 | -93.38562 | 1271 ft | 21 kts | 21° |
| 2026-04-22 13:27 | 37.24723 | -93.38494 | 1271 ft | 21 kts | 21° |
| 2026-04-22 13:27 | 37.24856 | -93.38427 | 1271 ft | 21 kts | 21° |
| 2026-04-22 13:28 | 37.24992 | -93.38359 | 1271 ft | 21 kts | 21° |
| 2026-04-22 13:28 | 37.25128 | -93.38292 | 1271 ft | 21 kts | 21° |
| 2026-04-22 13:28 | 37.25265 | -93.38225 | 1270 ft | 22 kts | 22° |
| 2026-04-22 13:28 | 37.25361 | -93.38121 | 1269 ft | 9 kts | 99° |
| 2026-04-22 13:29 | 37.25349 | -93.38069 | 1268 ft | 6 kts | 128° |
| 2026-04-22 13:29 | 37.25284 | -93.38062 | 1270 ft | 19 kts | 201° |
| 2026-04-22 13:29 | 37.24941 | -93.38236 | 1274 ft | 88 kts | 202° |
| 2026-04-22 13:29 | 37.24174 | -93.38627 | 1287 ft | 144 kts | 204° |
| 2026-04-22 13:30 | 37.23213 | -93.39073 | 1790 ft | 150 kts | 206° |
| 2026-04-22 13:30 | 37.22337 | -93.39817 | 2361 ft | 159 kts | 230° |
| 2026-04-22 13:30 | 37.21668 | -93.41127 | 2536 ft | 199 kts | 246° |
| 2026-04-22 13:30 | 37.21420 | -93.42815 | 3299 ft | 205 kts | 275° |
| 2026-04-22 13:31 | 37.21608 | -93.44597 | 4341 ft | 207 kts | 271° |
| 2026-04-22 13:31 | 37.21585 | -93.46460 | 5127 ft | 223 kts | 263° |
| 2026-04-22 13:31 | 37.21290 | -93.48457 | 5616 ft | 241 kts | 253° |
| 2026-04-22 13:31 | 37.20685 | -93.50494 | 6116 ft | 256 kts | 244° |
| 2026-04-22 13:32 | 37.19892 | -93.52565 | 6661 ft | 270 kts | 242° |
| 2026-04-22 13:32 | 37.19029 | -93.54701 | 7279 ft | 278 kts | 241° |
| 2026-04-22 13:32 | 37.18151 | -93.56848 | 8007 ft | 281 kts | 241° |
| 2026-04-22 13:32 | 37.17258 | -93.59033 | 8819 ft | 283 kts | 241° |
| 2026-04-22 13:33 | 37.16375 | -93.61270 | 9536 ft | 289 kts | 242° |
| 2026-04-22 13:33 | 37.15486 | -93.63555 | 10235 ft | 294 kts | 242° |
| 2026-04-22 13:33 | 37.14581 | -93.65887 | 10896 ft | 299 kts | 242° |
| 2026-04-22 13:33 | 37.13663 | -93.68253 | 11549 ft | 304 kts | 242° |
| 2026-04-22 13:34 | 37.12739 | -93.70655 | 12183 ft | 308 kts | 243° |
| 2026-04-22 13:34 | 37.11797 | -93.73088 | 12834 ft | 312 kts | 243° |
| 2026-04-22 13:34 | 37.10839 | -93.75562 | 13391 ft | 321 kts | 243° |
| 2026-04-22 13:34 | 37.09839 | -93.78141 | 13544 ft | 343 kts | 243° |
| 2026-04-22 13:35 | 37.08768 | -93.80898 | 13799 ft | 360 kts | 243° |
| 2026-04-22 13:35 | 37.07660 | -93.83769 | 14243 ft | 369 kts | 243° |
| 2026-04-22 13:35 | 37.06531 | -93.86678 | 14891 ft | 372 kts | 243° |
| 2026-04-22 13:35 | 37.05387 | -93.89601 | 15507 ft | 375 kts | 244° |
| 2026-04-22 13:36 | 37.04241 | -93.92552 | 16109 ft | 378 kts | 244° |
| 2026-04-22 13:36 | 37.03093 | -93.95495 | 16684 ft | 381 kts | 244° |
| 2026-04-22 13:36 | 37.01925 | -93.98488 | 17286 ft | 383 kts | 244° |
| 2026-04-22 13:36 | 37.00749 | -94.01497 | 17874 ft | 385 kts | 244° |
| 2026-04-22 13:37 | 36.99572 | -94.04517 | 18468 ft | 387 kts | 245° |
| 2026-04-22 13:37 | 36.98384 | -94.07550 | 18966 ft | 389 kts | 245° |
| 2026-04-22 13:37 | 36.97189 | -94.10606 | 19432 ft | 392 kts | 245° |
| 2026-04-22 13:37 | 36.95980 | -94.13683 | 19880 ft | 395 kts | 245° |
| 2026-04-22 13:38 | 36.94765 | -94.16786 | 20333 ft | 398 kts | 245° |
| 2026-04-22 13:38 | 36.92318 | -94.23008 | 21188 ft | 404 kts | 245° |
| 2026-04-22 13:38 | 36.91072 | -94.26172 | 21597 ft | 407 kts | 245° |
| 2026-04-22 13:39 | 36.89819 | -94.29357 | 22014 ft | 409 kts | 244° |
| 2026-04-22 13:39 | 36.88557 | -94.32556 | 22417 ft | 412 kts | 245° |
| 2026-04-22 13:39 | 36.87284 | -94.35776 | 22818 ft | 414 kts | 245° |
| 2026-04-22 13:39 | 36.86007 | -94.39010 | 23207 ft | 416 kts | 244° |
| 2026-04-22 13:40 | 36.84716 | -94.42261 | 23582 ft | 419 kts | 244° |
| 2026-04-22 13:40 | 36.83373 | -94.45509 | 23936 ft | 421 kts | 242° |
| 2026-04-22 13:40 | 36.81927 | -94.48697 | 24242 ft | 424 kts | 240° |
| 2026-04-22 13:40 | 36.80410 | -94.51858 | 24541 ft | 426 kts | 240° |
| 2026-04-22 13:41 | 36.78880 | -94.55037 | 24846 ft | 428 kts | 240° |
| 2026-04-22 13:41 | 36.77361 | -94.58198 | 25133 ft | 430 kts | 240° |
| 2026-04-22 13:41 | 36.75827 | -94.61409 | 25411 ft | 432 kts | 240° |
| 2026-04-22 13:41 | 36.74297 | -94.64652 | 25682 ft | 434 kts | 240° |
| 2026-04-22 13:42 | 36.72766 | -94.67906 | 25945 ft | 436 kts | 240° |
| 2026-04-22 13:42 | 36.71221 | -94.71173 | 26204 ft | 438 kts | 240° |
| 2026-04-22 13:42 | 36.69674 | -94.74457 | 26461 ft | 440 kts | 240° |
| 2026-04-22 13:42 | 36.68111 | -94.77755 | 26724 ft | 442 kts | 240° |
| 2026-04-22 13:43 | 36.66565 | -94.81015 | 26967 ft | 444 kts | 240° |
| 2026-04-22 13:43 | 36.64988 | -94.84345 | 27207 ft | 446 kts | 240° |
| 2026-04-22 13:43 | 36.63423 | -94.87680 | 27441 ft | 447 kts | 240° |
| 2026-04-22 13:43 | 36.61851 | -94.91041 | 27680 ft | 449 kts | 240° |
| 2026-04-22 13:44 | 36.60273 | -94.94404 | 27908 ft | 451 kts | 240° |
| 2026-04-22 13:44 | 36.58671 | -94.97778 | 28123 ft | 453 kts | 239° |
| 2026-04-22 13:44 | 36.57057 | -95.01148 | 28354 ft | 455 kts | 239° |
| 2026-04-22 13:44 | 36.55428 | -95.04539 | 28569 ft | 456 kts | 239° |
| 2026-04-22 13:45 | 36.53826 | -95.07895 | 28771 ft | 458 kts | 239° |
| 2026-04-22 13:45 | 36.52194 | -95.11312 | 28974 ft | 460 kts | 239° |
| 2026-04-22 13:45 | 36.50555 | -95.14740 | 29176 ft | 461 kts | 239° |
| 2026-04-22 13:45 | 36.48934 | -95.18147 | 29684 ft | 455 kts | 239° |
| 2026-04-22 13:46 | 36.47322 | -95.21523 | 30006 ft | 454 kts | 239° |
| 2026-04-22 13:46 | 36.45702 | -95.24891 | 30265 ft | 453 kts | 239° |
| 2026-04-22 13:46 | 36.44082 | -95.28252 | 30481 ft | 453 kts | 239° |
| 2026-04-22 13:46 | 36.42464 | -95.31624 | 30694 ft | 453 kts | 239° |
| 2026-04-22 13:47 | 36.40839 | -95.34984 | 30913 ft | 452 kts | 239° |
| 2026-04-22 13:47 | 36.39233 | -95.38341 | 31120 ft | 452 kts | 239° |
| 2026-04-22 13:47 | 36.37625 | -95.41697 | 31334 ft | 452 kts | 239° |
| 2026-04-22 13:47 | 36.36035 | -95.44994 | 31538 ft | 451 kts | 239° |
| 2026-04-22 13:48 | 36.34418 | -95.48330 | 31748 ft | 450 kts | 239° |
| 2026-04-22 13:48 | 36.32800 | -95.51648 | 31945 ft | 450 kts | 239° |
| 2026-04-22 13:48 | 36.31191 | -95.54977 | 32142 ft | 449 kts | 239° |
| 2026-04-22 13:48 | 36.29593 | -95.58310 | 32334 ft | 449 kts | 239° |
| 2026-04-22 13:49 | 36.27990 | -95.61625 | 32514 ft | 449 kts | 239° |
| 2026-04-22 13:49 | 36.26374 | -95.64934 | 32693 ft | 448 kts | 238° |
| 2026-04-22 13:49 | 36.24755 | -95.68235 | 32872 ft | 448 kts | 238° |
| 2026-04-22 13:49 | 36.23036 | -95.71447 | 33014 ft | 447 kts | 230° |
| 2026-04-22 13:50 | 36.21621 | -95.73293 | 33122 ft | 446 kts | 220° |
| 2026-04-22 13:50 | 36.18277 | -95.76307 | 33326 ft | 444 kts | 212° |
| 2026-04-22 13:50 | 36.15650 | -95.78309 | 33499 ft | 443 kts | 210° |
| 2026-04-22 13:50 | 36.13014 | -95.80212 | 33647 ft | 443 kts | 208° |
| 2026-04-22 13:51 | 36.10317 | -95.82063 | 33801 ft | 442 kts | 206° |
| 2026-04-22 13:51 | 36.07477 | -95.83493 | 33905 ft | 440 kts | 194° |
| 2026-04-22 13:51 | 36.04516 | -95.84400 | 34040 ft | 439 kts | 191° |
| 2026-04-22 13:51 | 36.01525 | -95.85220 | 34094 ft | 439 kts | 191° |
| 2026-04-22 13:52 | 35.95632 | -95.87131 | 34125 ft | 437 kts | 195° |
| 2026-04-22 13:52 | 35.89796 | -95.89255 | 34135 ft | 436 kts | 194° |
| 2026-04-22 13:53 | 35.84011 | -95.91330 | 34153 ft | 435 kts | 194° |
| 2026-04-22 13:53 | 35.78192 | -95.93359 | 34156 ft | 434 kts | 194° |
| 2026-04-22 13:54 | 35.72386 | -95.95378 | 34156 ft | 433 kts | 194° |
| 2026-04-22 13:54 | 35.66582 | -95.97395 | 34156 ft | 432 kts | 194° |
| 2026-04-22 13:55 | 35.60834 | -95.99387 | 34156 ft | 431 kts | 194° |
| 2026-04-22 13:55 | 35.55061 | -96.01385 | 34152 ft | 431 kts | 194° |
| 2026-04-22 13:56 | 35.49291 | -96.03379 | 34153 ft | 430 kts | 193° |
| 2026-04-22 13:56 | 35.43532 | -96.05370 | 34148 ft | 429 kts | 193° |
| 2026-04-22 13:57 | 35.37787 | -96.07352 | 34146 ft | 428 kts | 193° |
| 2026-04-22 13:57 | 35.32046 | -96.09324 | 34140 ft | 428 kts | 193° |
| 2026-04-22 13:58 | 35.26345 | -96.11285 | 34137 ft | 427 kts | 193° |
| 2026-04-22 13:58 | 35.20605 | -96.13257 | 34142 ft | 427 kts | 193° |
| 2026-04-22 13:59 | 35.14921 | -96.15202 | 34146 ft | 426 kts | 193° |
| 2026-04-22 13:59 | 35.09186 | -96.17167 | 34152 ft | 426 kts | 193° |
| 2026-04-22 14:00 | 35.03495 | -96.19110 | 34147 ft | 426 kts | 193° |
| 2026-04-22 14:00 | 34.97772 | -96.21063 | 34141 ft | 426 kts | 193° |
| 2026-04-22 14:01 | 34.92082 | -96.23003 | 34139 ft | 426 kts | 193° |
| 2026-04-22 14:01 | 34.86371 | -96.24947 | 34138 ft | 426 kts | 193° |
| 2026-04-22 14:02 | 34.80656 | -96.26889 | 34142 ft | 425 kts | 193° |
| 2026-04-22 14:02 | 34.74949 | -96.28816 | 34142 ft | 425 kts | 193° |
| 2026-04-22 14:03 | 34.69281 | -96.30745 | 34143 ft | 425 kts | 193° |
| 2026-04-22 14:03 | 34.63579 | -96.32673 | 34149 ft | 425 kts | 193° |
| 2026-04-22 14:04 | 34.58834 | -96.34276 | 34143 ft | 425 kts | 193° |
| 2026-04-22 14:04 | 34.53127 | -96.36201 | 34144 ft | 425 kts | 193° |
| 2026-04-22 14:05 | 34.47458 | -96.38111 | 34143 ft | 425 kts | 193° |
| 2026-04-22 14:06 | 34.38890 | -96.40992 | 34147 ft | 428 kts | 193° |
| 2026-04-22 14:06 | 34.33136 | -96.42923 | 34146 ft | 431 kts | 193° |
| 2026-04-22 14:07 | 34.27336 | -96.44871 | 34147 ft | 434 kts | 192° |
| 2026-04-22 14:07 | 34.21494 | -96.46823 | 34155 ft | 437 kts | 192° |
| 2026-04-22 14:08 | 34.15649 | -96.48722 | 34163 ft | 439 kts | 192° |
| 2026-04-22 14:08 | 34.09724 | -96.50671 | 34169 ft | 442 kts | 192° |
| 2026-04-22 14:09 | 34.03758 | -96.52645 | 34174 ft | 445 kts | 193° |
| 2026-04-22 14:09 | 33.97777 | -96.54638 | 34183 ft | 447 kts | 193° |
| 2026-04-22 14:10 | 33.91745 | -96.56638 | 34178 ft | 450 kts | 193° |
| 2026-04-22 14:10 | 33.85735 | -96.58634 | 34158 ft | 452 kts | 192° |
| 2026-04-22 14:11 | 33.79653 | -96.60650 | 34164 ft | 454 kts | 193° |
| 2026-04-22 14:11 | 33.73539 | -96.62675 | 34170 ft | 456 kts | 193° |
| 2026-04-22 14:12 | 33.67407 | -96.64700 | 34167 ft | 458 kts | 193° |
| 2026-04-22 14:12 | 33.61242 | -96.66733 | 34164 ft | 459 kts | 193° |
| 2026-04-22 14:13 | 33.55105 | -96.68757 | 34157 ft | 461 kts | 193° |
| 2026-04-22 14:13 | 33.48903 | -96.70797 | 34148 ft | 462 kts | 193° |
| 2026-04-22 14:14 | 33.42692 | -96.72837 | 34143 ft | 463 kts | 193° |
| 2026-04-22 14:14 | 33.36461 | -96.74880 | 34141 ft | 464 kts | 193° |
| 2026-04-22 14:15 | 33.30263 | -96.76911 | 34139 ft | 465 kts | 193° |
| 2026-04-22 14:15 | 33.24006 | -96.78959 | 34140 ft | 466 kts | 193° |
| 2026-04-22 14:16 | 33.17741 | -96.81003 | 34141 ft | 466 kts | 194° |
| 2026-04-22 14:16 | 33.11474 | -96.83060 | 34148 ft | 466 kts | 194° |
| 2026-04-22 14:17 | 33.05230 | -96.85085 | 34153 ft | 466 kts | 194° |
| 2026-04-22 14:17 | 32.98962 | -96.87126 | 34155 ft | 466 kts | 194° |
| 2026-04-22 14:18 | 32.92686 | -96.88812 | 34153 ft | 465 kts | 182° |
| 2026-04-22 14:18 | 32.86218 | -96.88578 | 34149 ft | 464 kts | 176° |
| 2026-04-22 14:19 | 32.79782 | -96.87922 | 34145 ft | 463 kts | 169° |
| 2026-04-22 14:19 | 32.73550 | -96.85998 | 34136 ft | 464 kts | 164° |
| 2026-04-22 14:20 | 32.64183 | -96.83192 | 34137 ft | 464 kts | 167° |
| 2026-04-22 14:20 | 32.57891 | -96.81394 | 34133 ft | 465 kts | 167° |
| 2026-04-22 14:21 | 32.48449 | -96.78704 | 34143 ft | 465 kts | 167° |
| 2026-04-22 14:22 | 32.39036 | -96.76004 | 34136 ft | 466 kts | 168° |
| 2026-04-22 14:23 | 32.29567 | -96.73308 | 34134 ft | 467 kts | 168° |
| 2026-04-22 14:23 | 32.23481 | -96.71577 | 34131 ft | 467 kts | 168° |
| 2026-04-22 14:24 | 32.17141 | -96.69783 | 34134 ft | 468 kts | 168° |
| 2026-04-22 14:24 | 32.10807 | -96.67978 | 34135 ft | 469 kts | 168° |
| 2026-04-22 14:25 | 32.04459 | -96.66185 | 34137 ft | 469 kts | 169° |
| 2026-04-22 14:25 | 31.98135 | -96.64393 | 34131 ft | 470 kts | 169° |
| 2026-04-22 14:26 | 31.91777 | -96.62602 | 34134 ft | 470 kts | 169° |
| 2026-04-22 14:26 | 31.85410 | -96.60804 | 34131 ft | 470 kts | 169° |
| 2026-04-22 14:27 | 31.79040 | -96.59010 | 34131 ft | 471 kts | 169° |
| 2026-04-22 14:27 | 31.72659 | -96.57216 | 34141 ft | 471 kts | 169° |
| 2026-04-22 14:28 | 31.66282 | -96.55424 | 34150 ft | 472 kts | 170° |
| 2026-04-22 14:28 | 31.59917 | -96.53646 | 34142 ft | 473 kts | 169° |
| 2026-04-22 14:28 | 31.56679 | -96.52739 | 33621 ft | 484 kts | 169° |
| 2026-04-22 14:29 | 31.53412 | -96.51728 | 33081 ft | 484 kts | 164° |
| 2026-04-22 14:29 | 31.50282 | -96.50318 | 32568 ft | 481 kts | 160° |
| 2026-04-22 14:29 | 31.47249 | -96.48694 | 32054 ft | 478 kts | 156° |
| 2026-04-22 14:29 | 31.44319 | -96.46881 | 31546 ft | 475 kts | 154° |
| 2026-04-22 14:30 | 31.41428 | -96.45026 | 31061 ft | 472 kts | 154° |
| 2026-04-22 14:30 | 31.38553 | -96.43179 | 30558 ft | 470 kts | 154° |
| 2026-04-22 14:30 | 31.35668 | -96.41402 | 30059 ft | 467 kts | 155° |
| 2026-04-22 14:30 | 31.32788 | -96.39655 | 29493 ft | 466 kts | 155° |
| 2026-04-22 14:31 | 31.29918 | -96.37900 | 28932 ft | 465 kts | 155° |
| 2026-04-22 14:31 | 31.27060 | -96.36142 | 28400 ft | 463 kts | 154° |
| 2026-04-22 14:31 | 31.24201 | -96.34403 | 27879 ft | 462 kts | 155° |
| 2026-04-22 14:31 | 31.21386 | -96.32690 | 27371 ft | 462 kts | 155° |
| 2026-04-22 14:32 | 31.18527 | -96.30952 | 26867 ft | 461 kts | 155° |
| 2026-04-22 14:32 | 31.15681 | -96.29219 | 26371 ft | 460 kts | 154° |
| 2026-04-22 14:32 | 31.12840 | -96.27490 | 25884 ft | 460 kts | 155° |
| 2026-04-22 14:32 | 31.10006 | -96.25765 | 25406 ft | 459 kts | 154° |
| 2026-04-22 14:33 | 31.07173 | -96.24043 | 24936 ft | 459 kts | 155° |
| 2026-04-22 14:33 | 31.04341 | -96.22327 | 24502 ft | 457 kts | 155° |
| 2026-04-22 14:33 | 31.01540 | -96.20626 | 24271 ft | 451 kts | 154° |
| 2026-04-22 14:33 | 30.98783 | -96.18938 | 24159 ft | 443 kts | 154° |
| 2026-04-22 14:34 | 30.96092 | -96.17265 | 24127 ft | 433 kts | 153° |
| 2026-04-22 14:34 | 30.93471 | -96.15577 | 23908 ft | 428 kts | 153° |
| 2026-04-22 14:34 | 30.90884 | -96.13912 | 23644 ft | 420 kts | 153° |
| 2026-04-22 14:34 | 30.88350 | -96.12280 | 23323 ft | 411 kts | 153° |
| 2026-04-22 14:35 | 30.85891 | -96.10700 | 23005 ft | 405 kts | 153° |
| 2026-04-22 14:35 | 30.83418 | -96.09099 | 22683 ft | 407 kts | 153° |
| 2026-04-22 14:35 | 30.80927 | -96.07499 | 22384 ft | 409 kts | 153° |
| 2026-04-22 14:35 | 30.78451 | -96.05917 | 22294 ft | 405 kts | 153° |
| 2026-04-22 14:36 | 30.75989 | -96.04339 | 21975 ft | 402 kts | 153° |
| 2026-04-22 14:36 | 30.73562 | -96.02778 | 21657 ft | 394 kts | 153° |
| 2026-04-22 14:36 | 30.71216 | -96.01274 | 21348 ft | 387 kts | 153° |
| 2026-04-22 14:36 | 30.68877 | -95.99751 | 20902 ft | 385 kts | 153° |
| 2026-04-22 14:37 | 30.66538 | -95.98225 | 20342 ft | 385 kts | 153° |
| 2026-04-22 14:37 | 30.64192 | -95.96711 | 19807 ft | 385 kts | 153° |
| 2026-04-22 14:37 | 30.61846 | -95.95211 | 19284 ft | 383 kts | 153° |
| 2026-04-22 14:37 | 30.59516 | -95.93729 | 18778 ft | 381 kts | 153° |
| 2026-04-22 14:38 | 30.57195 | -95.92250 | 18272 ft | 379 kts | 153° |
| 2026-04-22 14:38 | 30.54887 | -95.90777 | 17695 ft | 378 kts | 153° |
| 2026-04-22 14:38 | 30.52588 | -95.89309 | 17135 ft | 376 kts | 153° |
| 2026-04-22 14:38 | 30.50323 | -95.87864 | 16582 ft | 374 kts | 153° |
| 2026-04-22 14:39 | 30.48140 | -95.86274 | 16271 ft | 367 kts | 144° |
| 2026-04-22 14:39 | 30.46196 | -95.84422 | 16132 ft | 355 kts | 140° |
| 2026-04-22 14:39 | 30.44393 | -95.82544 | 16115 ft | 341 kts | 139° |
| 2026-04-22 14:40 | 30.41446 | -95.79469 | 15284 ft | 345 kts | 140° |
| 2026-04-22 14:40 | 30.38996 | -95.77028 | 14634 ft | 347 kts | 141° |
| 2026-04-22 14:40 | 30.37153 | -95.75210 | 14161 ft | 348 kts | 141° |
| 2026-04-22 14:40 | 30.35301 | -95.73396 | 13671 ft | 349 kts | 141° |
| 2026-04-22 14:41 | 30.33450 | -95.71606 | 13344 ft | 342 kts | 141° |
| 2026-04-22 14:41 | 30.31649 | -95.69869 | 13207 ft | 331 kts | 141° |
| 2026-04-22 14:41 | 30.29934 | -95.68214 | 13143 ft | 319 kts | 142° |
| 2026-04-22 14:41 | 30.28260 | -95.66595 | 13119 ft | 307 kts | 142° |
| 2026-04-22 14:42 | 30.26646 | -95.65044 | 13106 ft | 296 kts | 142° |
| 2026-04-22 14:42 | 30.25084 | -95.63553 | 13039 ft | 287 kts | 142° |
| 2026-04-22 14:42 | 30.23573 | -95.62099 | 13001 ft | 279 kts | 142° |
| 2026-04-22 14:42 | 30.22059 | -95.60633 | 12520 ft | 288 kts | 142° |
| 2026-04-22 14:43 | 30.20497 | -95.59136 | 12072 ft | 295 kts | 142° |
| 2026-04-22 14:43 | 30.18909 | -95.57610 | 11651 ft | 300 kts | 142° |
| 2026-04-22 14:43 | 30.17297 | -95.56050 | 11240 ft | 303 kts | 141° |
| 2026-04-22 14:43 | 30.15665 | -95.54480 | 10823 ft | 306 kts | 141° |
| 2026-04-22 14:44 | 30.14021 | -95.52899 | 10405 ft | 308 kts | 141° |
| 2026-04-22 14:44 | 30.12372 | -95.51316 | 9990 ft | 308 kts | 142° |
| 2026-04-22 14:44 | 30.10746 | -95.49747 | 9515 ft | 308 kts | 139° |
| 2026-04-22 14:44 | 30.09504 | -95.47753 | 9071 ft | 310 kts | 110° |
| 2026-04-22 14:45 | 30.09106 | -95.45318 | 8634 ft | 309 kts | 94° |
| 2026-04-22 14:45 | 30.09070 | -95.42834 | 8195 ft | 308 kts | 89° |
| 2026-04-22 14:45 | 30.09134 | -95.40367 | 7760 ft | 307 kts | 88° |
| 2026-04-22 14:45 | 30.09210 | -95.37914 | 7369 ft | 303 kts | 88° |
| 2026-04-22 14:46 | 30.09268 | -95.35511 | 7166 ft | 293 kts | 90° |
| 2026-04-22 14:46 | 30.09281 | -95.33209 | 7066 ft | 280 kts | 91° |
| 2026-04-22 14:46 | 30.09281 | -95.31012 | 7020 ft | 267 kts | 91° |
| 2026-04-22 14:46 | 30.09282 | -95.28931 | 7024 ft | 248 kts | 91° |
| 2026-04-22 14:47 | 30.09286 | -95.26985 | 6905 ft | 249 kts | 90° |
| 2026-04-22 14:47 | 30.09293 | -95.24957 | 6452 ft | 251 kts | 90° |
| 2026-04-22 14:47 | 30.09305 | -95.22970 | 5962 ft | 245 kts | 90° |
| 2026-04-22 14:47 | 30.09321 | -95.21024 | 5462 ft | 240 kts | 91° |
| 2026-04-22 14:48 | 30.09343 | -95.19112 | 4969 ft | 236 kts | 90° |
| 2026-04-22 14:48 | 30.09371 | -95.17229 | 4463 ft | 232 kts | 90° |
| 2026-04-22 14:48 | 30.09407 | -95.15374 | 3960 ft | 230 kts | 90° |
| 2026-04-22 14:48 | 30.09449 | -95.13542 | 3470 ft | 226 kts | 91° |
| 2026-04-22 14:49 | 30.09504 | -95.11769 | 3208 ft | 213 kts | 90° |
| 2026-04-22 14:49 | 30.09554 | -95.10132 | 3200 ft | 201 kts | 91° |
| 2026-04-22 14:49 | 30.09614 | -95.08544 | 3158 ft | 190 kts | 90° |
| 2026-04-22 14:49 | 30.09673 | -95.06989 | 3050 ft | 200 kts | 91° |
| 2026-04-22 14:50 | 30.09301 | -95.05495 | 2988 ft | 192 kts | 132° |
| 2026-04-22 14:50 | 30.08179 | -95.04827 | 2993 ft | 181 kts | 172° |
| 2026-04-22 14:50 | 30.06940 | -95.04630 | 2986 ft | 178 kts | 178° |
| 2026-04-22 14:50 | 30.05752 | -95.04947 | 2983 ft | 182 kts | 199° |
| 2026-04-22 14:51 | 30.04592 | -95.05698 | 2984 ft | 205 kts | 227° |
| 2026-04-22 14:51 | 30.03758 | -95.07084 | 3008 ft | 211 kts | 234° |
| 2026-04-22 14:51 | 30.03021 | -95.08395 | 3032 ft | 177 kts | 235° |
| 2026-04-22 14:51 | 30.02408 | -95.09539 | 3084 ft | 167 kts | 236° |
| 2026-04-22 14:52 | 30.01798 | -95.10723 | 3276 ft | 176 kts | 234° |
| 2026-04-22 14:52 | 30.00986 | -95.11850 | 3422 ft | 189 kts | 225° |
| 2026-04-22 14:52 | 30.00352 | -95.12561 | 3417 ft | 187 kts | 222° |
| 2026-04-22 14:52 | 29.99565 | -95.13653 | 3189 ft | 172 kts | 248° |
| 2026-04-22 14:53 | 29.99407 | -95.14930 | 3063 ft | 147 kts | 260° |
| 2026-04-22 14:53 | 29.99340 | -95.15992 | 2942 ft | 128 kts | 262° |
| 2026-04-22 14:53 | 29.99304 | -95.17064 | 2943 ft | 138 kts | 264° |
| 2026-04-22 14:53 | 29.99285 | -95.18189 | 2959 ft | 141 kts | 265° |
| 2026-04-22 14:54 | 29.99287 | -95.19340 | 2950 ft | 146 kts | 265° |
| 2026-04-22 14:54 | 29.99273 | -95.20662 | 2353 ft | 183 kts | 265° |
| 2026-04-22 14:54 | 29.99289 | -95.22088 | 1701 ft | 174 kts | 268° |
| 2026-04-22 14:54 | 29.99337 | -95.23415 | 1426 ft | 148 kts | 268° |
| 2026-04-22 14:55 | 29.99361 | -95.24461 | 2087 ft | 122 kts | 265° |
| 2026-04-22 14:55 | 29.99383 | -95.25586 | 2000 ft | 141 kts | 266° |
| 2026-04-22 14:55 | 29.99399 | -95.26703 | 1440 ft | 140 kts | 266° |
| 2026-04-22 14:55 | 29.99363 | -95.27836 | 832 ft | 141 kts | 265° |
| 2026-04-22 14:56 | 29.99337 | -95.28928 | 561 ft | 139 kts | 268° |
| 2026-04-22 14:56 | 29.99315 | -95.30110 | 477 ft | 149 kts | 272° |
| 2026-04-22 14:56 | 29.99327 | -95.31236 | 317 ft | 138 kts | 273° |
| 2026-04-22 14:56 | 29.99342 | -95.32261 | 143 ft | 118 kts | 268° |
| 2026-04-22 14:57 | 29.99328 | -95.33214 | 129 ft | 118 kts | 274° |
| 2026-04-22 14:57 | 29.99326 | -95.34155 | 112 ft | 118 kts | 274° |
| 2026-04-22 14:57 | 29.99343 | -95.35089 | 195 ft | 118 kts | 273° |
| 2026-04-22 14:57 | 29.99375 | -95.36057 | 514 ft | 122 kts | 275° |
| 2026-04-22 14:58 | 29.99397 | -95.37097 | 839 ft | 134 kts | 271° |
| 2026-04-22 14:58 | 29.99396 | -95.38250 | 1235 ft | 157 kts | 266° |
| 2026-04-22 14:58 | 29.99356 | -95.39482 | 2040 ft | 158 kts | 265° |
| 2026-04-22 14:58 | 29.99372 | -95.40866 | 2597 ft | 187 kts | 269° |
| 2026-04-22 14:59 | 29.99846 | -95.42414 | 2847 ft | 230 kts | 303° |
| 2026-04-22 14:59 | 30.01032 | -95.43449 | 2936 ft | 203 kts | 341° |
| 2026-04-22 14:59 | 30.02357 | -95.43610 | 2984 ft | 189 kts | 0° |
| 2026-04-22 14:59 | 30.03739 | -95.43594 | 2996 ft | 204 kts | 2° |
| 2026-04-22 15:00 | 30.05171 | -95.43363 | 3012 ft | 212 kts | 25° |
| 2026-04-22 15:00 | 30.06281 | -95.42275 | 3008 ft | 213 kts | 62° |
| 2026-04-22 15:00 | 30.06878 | -95.40718 | 3014 ft | 218 kts | 76° |
| 2026-04-22 15:00 | 30.07169 | -95.38955 | 3015 ft | 225 kts | 86° |
| 2026-04-22 15:01 | 30.07354 | -95.37160 | 3014 ft | 231 kts | 87° |
| 2026-04-22 15:01 | 30.07504 | -95.35284 | 3013 ft | 237 kts | 88° |
| 2026-04-22 15:01 | 30.07635 | -95.33358 | 3016 ft | 243 kts | 89° |
| 2026-04-22 15:01 | 30.07766 | -95.31424 | 3007 ft | 232 kts | 89° |
| 2026-04-22 15:02 | 30.07883 | -95.29676 | 2984 ft | 206 kts | 89° |
| 2026-04-22 15:02 | 30.07998 | -95.28108 | 2960 ft | 185 kts | 89° |
| 2026-04-22 15:02 | 30.08110 | -95.26680 | 2944 ft | 178 kts | 89° |
| 2026-04-22 15:02 | 30.08224 | -95.25264 | 2949 ft | 176 kts | 89° |
| 2026-04-22 15:03 | 30.08339 | -95.23836 | 2950 ft | 182 kts | 89° |
| 2026-04-22 15:03 | 30.08452 | -95.22348 | 2967 ft | 190 kts | 89° |
| 2026-04-22 15:03 | 30.08567 | -95.20801 | 2977 ft | 197 kts | 89° |
| 2026-04-22 15:03 | 30.08684 | -95.19185 | 2991 ft | 207 kts | 88° |
| 2026-04-22 15:04 | 30.08796 | -95.17489 | 2993 ft | 216 kts | 89° |
| 2026-04-22 15:04 | 30.08913 | -95.15744 | 2998 ft | 224 kts | 89° |
| 2026-04-22 15:04 | 30.09034 | -95.13915 | 3021 ft | 231 kts | 89° |
| 2026-04-22 15:04 | 30.09152 | -95.12037 | 3010 ft | 237 kts | 89° |
| 2026-04-22 15:05 | 30.09268 | -95.10212 | 3026 ft | 216 kts | 88° |
| 2026-04-22 15:05 | 30.09385 | -95.08518 | 3092 ft | 209 kts | 88° |
| 2026-04-22 15:05 | 30.09500 | -95.06845 | 3103 ft | 208 kts | 89° |
| 2026-04-22 15:05 | 30.09553 | -95.05183 | 3033 ft | 204 kts | 101° |
| 2026-04-22 15:06 | 30.08940 | -95.03788 | 3022 ft | 193 kts | 140° |
| 2026-04-22 15:06 | 30.07772 | -95.03199 | 3015 ft | 186 kts | 174° |
| 2026-04-22 15:06 | 30.06478 | -95.03062 | 3028 ft | 183 kts | 177° |
| 2026-04-22 15:06 | 30.05240 | -95.02985 | 3018 ft | 174 kts | 178° |
| 2026-04-22 15:07 | 30.04054 | -95.02933 | 2998 ft | 167 kts | 179° |
| 2026-04-22 15:07 | 30.02936 | -95.03132 | 2962 ft | 162 kts | 208° |
| 2026-04-22 15:07 | 30.02265 | -95.04178 | 3055 ft | 172 kts | 247° |
| 2026-04-22 15:07 | 30.01884 | -95.05539 | 3293 ft | 181 kts | 250° |
| 2026-04-22 15:08 | 30.01512 | -95.06882 | 3424 ft | 171 kts | 251° |
| 2026-04-22 15:08 | 30.01159 | -95.08183 | 3370 ft | 170 kts | 251° |
| 2026-04-22 15:08 | 30.00832 | -95.09515 | 3276 ft | 179 kts | 251° |
| 2026-04-22 15:08 | 30.00493 | -95.10908 | 3143 ft | 174 kts | 251° |
| 2026-04-22 15:09 | 30.00180 | -95.12217 | 3049 ft | 168 kts | 251° |
| 2026-04-22 15:09 | 29.99878 | -95.13510 | 3002 ft | 165 kts | 251° |
| 2026-04-22 15:09 | 29.99623 | -95.14791 | 2987 ft | 163 kts | 256° |
| 2026-04-22 15:09 | 29.99451 | -95.16061 | 2876 ft | 161 kts | 258° |
| 2026-04-22 15:10 | 29.99351 | -95.17366 | 2646 ft | 166 kts | 264° |
| 2026-04-22 15:10 | 29.99325 | -95.18712 | 2432 ft | 173 kts | 266° |
| 2026-04-22 15:10 | 29.99327 | -95.20097 | 2212 ft | 167 kts | 267° |
| 2026-04-22 15:10 | 29.99342 | -95.21394 | 2008 ft | 162 kts | 266° |
| 2026-04-22 15:11 | 29.99347 | -95.22721 | 1798 ft | 168 kts | 266° |
| 2026-04-22 15:11 | 29.99348 | -95.24082 | 1562 ft | 170 kts | 266° |
| 2026-04-22 15:11 | 29.99349 | -95.25414 | 1326 ft | 157 kts | 266° |
| 2026-04-22 15:11 | 29.99351 | -95.26650 | 1153 ft | 159 kts | 266° |
| 2026-04-22 15:12 | 29.99338 | -95.27985 | 947 ft | 171 kts | 267° |
| 2026-04-22 15:12 | 29.99342 | -95.29265 | 703 ft | 147 kts | 268° |
| 2026-04-22 15:12 | 29.99341 | -95.30381 | 474 ft | 145 kts | 269° |
| 2026-04-22 15:12 | 29.99334 | -95.31579 | 307 ft | 149 kts | 272° |
| 2026-04-22 15:13 | 29.99346 | -95.32749 | 123 ft | 142 kts | 266° |
| 2026-04-22 15:13 | 29.99344 | -95.33818 | 105 ft | 125 kts | 268° |
| 2026-04-22 15:13 | 29.99344 | -95.34495 | 104 ft | 45 kts | 268° |
| 2026-04-22 15:13 | 29.99278 | -95.34787 | 105 ft | 34 kts | 242° |
| 2026-04-22 15:14 | 29.99177 | -95.35023 | 105 ft | 32 kts | 262° |
| 2026-04-22 15:14 | 29.99150 | -95.35258 | 105 ft | 26 kts | 220° |
| 2026-04-22 15:14 | 29.98976 | -95.35277 | 105 ft | 26 kts | 179° |
| 2026-04-22 15:14 | 29.98794 | -95.35274 | 105 ft | 26 kts | 179° |
| 2026-04-22 15:15 | 29.98613 | -95.35274 | 105 ft | 26 kts | 180° |
| 2026-04-22 15:15 | 29.98439 | -95.35234 | 104 ft | 25 kts | 160° |
| 2026-04-22 15:15 | 29.98381 | -95.35118 | 105 ft | 15 kts | 91° |
| 2026-04-22 15:15 | 29.98380 | -95.35009 | 105 ft | 7 kts | 90° |
| 2026-04-22 15:16 | 29.98380 | -95.34973 | 105 ft | 10 kts | 90° |
| 2026-04-22 15:16 | 29.98388 | -95.34837 | 104 ft | 9 kts | 73° |
| 2026-04-22 15:16 | 29.98391 | -95.34825 | 105 ft | 3 kts | 74° |
| 2026-04-22 15:16 | 29.98396 | -95.34796 | 105 ft | 0 kts | 77° |
| 2026-04-22 15:17 | 29.98428 | -95.34743 | 105 ft | 0 kts | 44° |
| 2026-04-22 15:17 | 29.98429 | -95.34742 | 105 ft | 0 kts | 44° |
| 2026-04-22 15:17 | 29.98432 | -95.34738 | 104 ft | 1 kts | 43° |
| 2026-04-22 15:17 | 29.98436 | -95.34734 | 105 ft | 0 kts | 43° |